createdAt,value
2023-05-14T00:00:22.238Z,20.27
2023-05-14T00:02:48.913Z,22.83
2023-05-14T00:05:15.717Z,20.20
2023-05-14T00:07:42.145Z,21.27
2023-05-14T00:10:08.926Z,21.23
2023-05-14T00:12:35.538Z,19.30
2023-05-14T00:15:02.196Z,19.42
2023-05-14T00:17:28.633Z,20.77
2023-05-14T00:19:55.175Z,21.83
2023-05-14T00:22:21.585Z,25.65
2023-05-14T00:24:48.038Z,24.33
2023-05-14T00:27:14.768Z,22.48
2023-05-14T00:29:41.136Z,24.95
2023-05-14T00:32:07.909Z,22.73
2023-05-14T00:34:34.975Z,19.50
2023-05-14T00:37:01.373Z,20.40
2023-05-14T00:39:27.956Z,22.85
2023-05-14T00:41:54.393Z,21.40
2023-05-14T00:44:20.827Z,21.92
2023-05-14T00:46:47.421Z,22.58
2023-05-14T00:49:13.884Z,21.73
2023-05-14T00:51:41.475Z,19.15
2023-05-14T00:54:08.220Z,20.20
2023-05-14T00:56:35.354Z,19.80
2023-05-14T00:59:01.870Z,20.95
2023-05-14T01:01:28.680Z,20.77
2023-05-14T01:03:57.863Z,19.35
2023-05-14T01:06:52.497Z,20.05
2023-05-14T01:09:29.732Z,23.10
2023-05-14T01:12:02.943Z,21.27
2023-05-14T01:14:48.039Z,18.87
2023-05-14T01:17:19.919Z,20.85
2023-05-14T01:19:47.738Z,19.70
2023-05-14T01:22:14.525Z,23.77
2023-05-14T01:24:41.094Z,20.00
2023-05-14T01:27:23.416Z,20.63
2023-05-14T01:30:10.268Z,21.33
2023-05-14T01:32:39.020Z,18.95
2023-05-14T01:35:07.910Z,20.50
2023-05-14T01:37:36.398Z,18.60
2023-05-14T01:40:04.527Z,21.40
2023-05-14T01:42:31.211Z,21.30
2023-05-14T01:44:58.056Z,21.63
2023-05-14T01:47:24.576Z,21.67
2023-05-14T01:49:50.985Z,20.02
2023-05-14T01:52:20.895Z,20.20
2023-05-14T01:54:48.205Z,23.00
2023-05-14T01:57:14.606Z,20.10
2023-05-14T01:59:40.984Z,21.85
2023-05-14T02:02:07.418Z,24.88
2023-05-14T02:04:33.781Z,20.13
2023-05-14T02:07:00.621Z,21.15
2023-05-14T02:09:27.142Z,20.88
2023-05-14T02:11:53.537Z,22.42
2023-05-14T02:14:19.929Z,22.23
2023-05-14T02:16:46.310Z,16.90
2023-05-14T02:19:12.796Z,20.20
2023-05-14T02:21:39.272Z,18.90
2023-05-14T02:24:05.793Z,20.90
2023-05-14T02:26:32.408Z,22.30
2023-05-14T02:28:58.921Z,22.00
2023-05-14T02:31:25.376Z,20.63
2023-05-14T02:33:51.813Z,20.05
2023-05-14T02:36:18.208Z,19.45
2023-05-14T02:38:44.688Z,22.98
2023-05-14T02:41:11.086Z,20.60
2023-05-14T02:43:37.479Z,18.50
2023-05-14T02:46:04.075Z,24.42
2023-05-14T02:48:30.584Z,20.38
2023-05-14T02:50:56.934Z,20.05
2023-05-14T02:53:23.310Z,18.73
2023-05-14T02:55:49.694Z,21.27
2023-05-14T02:58:16.133Z,21.48
2023-05-14T03:00:42.666Z,21.85
2023-05-14T03:03:09.557Z,21.30
2023-05-14T03:05:36.481Z,20.47
2023-05-14T03:08:02.954Z,23.40
2023-05-14T03:10:29.424Z,23.23
2023-05-14T03:12:55.832Z,20.50
2023-05-14T03:15:22.288Z,24.20
2023-05-14T03:17:49.158Z,24.97
2023-05-14T03:20:15.786Z,23.00
2023-05-14T03:22:42.261Z,24.40
2023-05-14T03:25:09.012Z,22.00
2023-05-14T03:27:35.568Z,23.90
2023-05-14T03:30:02.096Z,24.67
2023-05-14T03:32:28.558Z,26.27
2023-05-14T03:34:54.987Z,26.95
2023-05-14T03:37:21.603Z,24.15
2023-05-14T03:39:47.959Z,27.80
2023-05-14T03:42:14.345Z,25.13
2023-05-14T03:44:40.784Z,26.67
2023-05-14T03:47:07.187Z,25.63
2023-05-14T03:49:33.585Z,25.60
2023-05-14T03:51:59.962Z,26.40
2023-05-14T03:54:26.729Z,22.97
2023-05-14T03:56:53.149Z,23.52
2023-05-14T03:59:19.537Z,24.80
2023-05-14T04:01:45.944Z,21.48
2023-05-14T04:04:12.436Z,22.23
2023-05-14T04:06:38.985Z,27.13
2023-05-14T04:09:05.466Z,26.70
2023-05-14T04:11:31.869Z,24.98
2023-05-14T04:13:58.285Z,25.98
2023-05-14T04:16:24.768Z,25.60
2023-05-14T04:18:51.213Z,29.77
2023-05-14T04:21:17.704Z,26.48
2023-05-14T04:23:44.075Z,25.80
2023-05-14T04:26:10.540Z,25.58
2023-05-14T04:28:37.001Z,26.88
2023-05-14T04:31:03.788Z,25.13
2023-05-14T04:33:30.178Z,23.38
2023-05-14T04:35:56.745Z,27.65
2023-05-14T04:38:23.247Z,26.75
2023-05-14T04:40:49.631Z,26.08
2023-05-14T04:43:17.464Z,25.37
2023-05-14T04:45:43.933Z,25.70
2023-05-14T04:48:10.517Z,26.83
2023-05-14T04:50:36.969Z,27.75
2023-05-14T04:53:03.392Z,25.65
2023-05-14T04:55:30.002Z,25.17
2023-05-14T04:57:56.477Z,24.30
2023-05-14T05:00:23.288Z,25.45
2023-05-14T05:02:49.911Z,25.45
2023-05-14T05:05:16.321Z,25.10
2023-05-14T05:07:42.755Z,25.27
2023-05-14T05:10:09.487Z,26.10
2023-05-14T05:12:35.899Z,25.63
2023-05-14T05:15:02.268Z,23.52
2023-05-14T05:17:29.455Z,22.30
2023-05-14T05:19:55.872Z,27.80
2023-05-14T05:22:22.312Z,24.50
2023-05-14T05:24:49.944Z,25.05
2023-05-14T05:27:16.605Z,24.55
2023-05-14T05:29:44.479Z,26.15
2023-05-14T05:32:10.976Z,25.17
2023-05-14T05:34:37.488Z,26.92
2023-05-14T05:37:05.822Z,25.30
2023-05-14T05:39:34.757Z,26.98
2023-05-14T05:42:04.766Z,23.15
2023-05-14T05:44:31.223Z,25.37
2023-05-14T05:46:57.837Z,20.83
2023-05-14T05:49:24.360Z,26.25
2023-05-14T05:51:50.761Z,24.92
2023-05-14T05:54:17.149Z,29.80
2023-05-14T05:56:43.689Z,25.67
2023-05-14T05:59:10.164Z,25.85
2023-05-14T06:01:36.964Z,27.48
2023-05-14T06:04:05.523Z,24.00
2023-05-14T06:06:32.857Z,24.40
2023-05-14T06:08:59.385Z,24.03
2023-05-14T06:11:26.558Z,20.45
2023-05-14T06:13:53.149Z,20.48
2023-05-14T06:16:19.696Z,22.08
2023-05-14T06:18:46.480Z,19.52
2023-05-14T06:21:12.930Z,22.70
2023-05-14T06:23:40.222Z,19.92
2023-05-14T06:26:06.695Z,18.40
2023-05-14T06:28:33.088Z,22.45
2023-05-14T06:30:59.462Z,20.23
2023-05-14T06:33:30.790Z,44.20
2023-05-14T06:36:01.068Z,26.10
2023-05-14T06:38:27.461Z,21.90
2023-05-14T06:40:53.876Z,20.10
2023-05-14T06:43:20.756Z,22.75
2023-05-14T06:45:51.067Z,20.47
2023-05-14T06:48:21.180Z,17.70
2023-05-14T06:50:49.064Z,18.08
2023-05-14T06:53:15.666Z,17.35
2023-05-14T06:55:42.186Z,17.85
2023-05-14T06:58:09.382Z,19.33
2023-05-14T07:00:35.886Z,17.65
2023-05-14T07:03:02.361Z,21.80
2023-05-14T07:05:29.050Z,19.65
2023-05-14T07:07:55.461Z,19.13
2023-05-14T07:10:22.361Z,14.50
2023-05-14T07:12:49.534Z,17.23
2023-05-14T07:15:16.003Z,17.85
2023-05-14T07:17:42.498Z,16.63
2023-05-14T07:20:09.457Z,17.38
2023-05-14T07:22:35.866Z,16.33
2023-05-14T07:25:02.855Z,15.73
2023-05-14T07:27:29.330Z,17.73
2023-05-14T07:29:55.723Z,15.45
2023-05-14T07:32:22.176Z,19.17
2023-05-14T07:34:48.821Z,15.20
2023-05-14T07:37:15.296Z,16.33
2023-05-14T07:39:41.776Z,20.20
2023-05-14T07:42:08.248Z,16.27
2023-05-14T07:44:34.601Z,18.13
2023-05-14T07:47:01.018Z,16.97
2023-05-14T07:49:27.465Z,18.15
2023-05-14T07:51:53.832Z,18.77
2023-05-14T07:54:20.348Z,17.25
2023-05-14T07:56:46.762Z,18.15
2023-05-14T07:59:13.197Z,16.87
2023-05-14T08:01:39.673Z,17.17
2023-05-14T08:04:06.362Z,17.10
2023-05-14T08:06:33.213Z,17.15
2023-05-14T08:08:59.707Z,17.63
2023-05-14T08:11:26.178Z,15.30
2023-05-14T08:13:52.772Z,17.17
2023-05-14T08:16:19.302Z,16.95
2023-05-14T08:18:45.740Z,16.85
2023-05-14T08:21:12.166Z,16.45
2023-05-14T08:23:38.734Z,18.10
2023-05-14T08:26:05.204Z,16.58
2023-05-14T08:28:31.566Z,15.98
2023-05-14T08:30:58.033Z,17.77
2023-05-14T08:33:24.522Z,19.10
2023-05-14T08:35:54.596Z,17.60
2023-05-14T08:38:20.985Z,16.88
2023-05-14T08:40:56.306Z,15.13
2023-05-14T08:43:26.953Z,15.02
2023-05-14T08:46:00.555Z,14.50
2023-05-14T08:48:32.047Z,15.37
2023-05-14T08:50:59.658Z,14.25
2023-05-14T08:53:26.203Z,10.77
2023-05-14T08:55:54.012Z,14.13
2023-05-14T08:58:20.747Z,13.90
2023-05-14T09:00:47.662Z,12.67
2023-05-14T09:03:14.968Z,13.15
2023-05-14T09:05:41.899Z,11.88
2023-05-14T09:08:08.299Z,10.65
2023-05-14T09:10:34.695Z,14.00
2023-05-14T09:13:01.104Z,12.87
2023-05-14T09:15:29.635Z,11.95
2023-05-14T09:17:56.694Z,11.23
2023-05-14T09:20:24.829Z,12.80
2023-05-14T09:22:54.826Z,12.00
2023-05-14T09:25:27.036Z,9.83
2023-05-14T09:27:56.139Z,11.23
2023-05-14T09:30:24.982Z,12.25
2023-05-14T09:32:54.274Z,9.25
2023-05-14T09:35:22.617Z,10.70
2023-05-14T09:37:53.512Z,10.23
2023-05-14T09:40:21.713Z,10.05
2023-05-14T09:42:49.179Z,10.10
2023-05-14T09:45:16.160Z,9.48
2023-05-14T09:47:43.053Z,9.90
2023-05-14T09:50:09.766Z,10.30
2023-05-14T09:52:37.238Z,10.48
2023-05-14T09:55:04.115Z,9.48
2023-05-14T09:57:30.910Z,11.63
2023-05-14T09:59:57.468Z,9.93
2023-05-14T10:02:37.481Z,10.40
2023-05-14T10:05:06.411Z,10.55
2023-05-14T10:07:42.138Z,7.63
2023-05-14T10:10:13.448Z,9.07
2023-05-14T10:12:40.688Z,10.40
2023-05-14T10:15:23.873Z,10.77
2023-05-14T10:17:56.453Z,8.88
2023-05-14T10:20:25.281Z,9.02
2023-05-14T10:22:52.142Z,8.30
2023-05-14T10:25:18.881Z,8.50
2023-05-14T10:27:45.643Z,9.97
2023-05-14T10:30:12.911Z,10.63
2023-05-14T10:32:41.798Z,10.32
2023-05-14T10:35:20.545Z,9.73
2023-05-14T10:37:47.151Z,10.15
2023-05-14T10:40:14.119Z,9.63
2023-05-14T10:42:43.228Z,11.50
2023-05-14T10:45:15.028Z,10.38
2023-05-14T10:47:47.062Z,8.57
2023-05-14T10:50:17.508Z,8.95
2023-05-14T10:52:45.604Z,8.97
2023-05-14T10:55:16.947Z,8.65
2023-05-14T10:57:45.533Z,10.48
2023-05-14T11:00:13.936Z,7.85
2023-05-14T11:02:44.876Z,9.20
2023-05-14T11:05:15.326Z,9.57
2023-05-14T11:07:46.034Z,8.82
2023-05-14T11:10:16.097Z,8.43
2023-05-14T11:12:44.986Z,9.50
2023-05-14T11:15:13.995Z,9.30
2023-05-14T11:17:42.630Z,8.47
2023-05-14T11:20:10.609Z,9.55
2023-05-14T11:22:38.696Z,8.35
2023-05-14T11:25:06.287Z,7.75
2023-05-14T11:27:35.737Z,8.68
2023-05-14T11:30:03.877Z,11.20
2023-05-14T11:32:32.983Z,7.93
2023-05-14T11:34:59.456Z,8.18
2023-05-14T11:37:25.956Z,8.50
2023-05-14T11:39:54.308Z,7.72
2023-05-14T11:42:22.360Z,9.57
2023-05-14T11:44:51.548Z,10.75
2023-05-14T11:47:20.488Z,9.93
2023-05-14T11:49:47.660Z,10.55
2023-05-14T11:52:15.608Z,8.55
2023-05-14T11:54:43.746Z,10.47
2023-05-14T11:57:16.118Z,10.65
2023-05-14T11:59:42.665Z,10.43
2023-05-14T12:02:13.938Z,10.38
2023-05-14T12:04:42.271Z,9.55
2023-05-14T12:07:15.034Z,10.47
2023-05-14T12:09:48.942Z,7.45
2023-05-14T12:12:19.932Z,8.95
2023-05-14T12:14:47.326Z,9.10
2023-05-14T12:17:21.942Z,8.45
2023-05-14T12:19:52.185Z,9.97
2023-05-14T12:22:23.066Z,7.72
2023-05-14T12:24:54.129Z,8.52
2023-05-14T12:27:26.330Z,10.32
2023-05-14T12:30:20.785Z,8.13
2023-05-14T12:32:51.754Z,8.13
2023-05-14T12:35:18.509Z,8.82
2023-05-14T12:37:44.876Z,9.43
2023-05-14T12:40:11.757Z,7.60
2023-05-14T12:42:38.150Z,8.70
2023-05-14T12:45:07.789Z,8.97
2023-05-14T12:47:35.070Z,10.00
2023-05-14T12:50:02.030Z,7.25
2023-05-14T12:52:37.935Z,7.63
2023-05-14T12:55:07.112Z,6.97
2023-05-14T12:57:35.288Z,7.40
2023-05-14T13:00:02.327Z,8.13
2023-05-14T13:02:28.717Z,10.13
2023-05-14T13:04:55.100Z,8.70
2023-05-14T13:07:21.516Z,8.63
2023-05-14T13:09:47.937Z,9.13
2023-05-14T13:12:14.373Z,7.22
2023-05-14T13:14:40.900Z,8.45
2023-05-14T13:17:08.128Z,8.77
2023-05-14T13:19:34.730Z,6.93
2023-05-14T13:22:01.131Z,8.30
2023-05-14T13:24:27.637Z,7.25
2023-05-14T13:26:54.004Z,7.95
2023-05-14T13:29:20.406Z,7.60
2023-05-14T13:31:47.115Z,8.15
2023-05-14T13:34:13.571Z,7.73
2023-05-14T13:36:40.655Z,8.85
2023-05-14T13:39:07.260Z,7.90
2023-05-14T13:41:35.666Z,8.70
2023-05-14T13:44:02.071Z,8.35
2023-05-14T13:46:28.826Z,8.03
2023-05-14T13:48:55.332Z,7.05
2023-05-14T13:51:22.844Z,9.50
2023-05-14T13:53:49.802Z,6.20
2023-05-14T13:56:16.204Z,8.05
2023-05-14T13:58:42.636Z,6.63
2023-05-14T14:01:09.205Z,7.18
2023-05-14T14:03:35.610Z,7.18
2023-05-14T14:06:01.986Z,6.95
2023-05-14T14:08:29.580Z,7.57
2023-05-14T14:10:56.034Z,7.03
2023-05-14T14:13:22.934Z,6.78
2023-05-14T14:15:50.040Z,7.53
2023-05-14T14:18:16.568Z,8.13
2023-05-14T14:20:42.985Z,6.57
2023-05-14T14:23:09.356Z,7.43
2023-05-14T14:25:35.831Z,7.00
2023-05-14T14:28:02.210Z,7.45
2023-05-14T14:30:28.633Z,7.80
2023-05-14T14:32:55.095Z,7.63
2023-05-14T14:35:21.749Z,8.17
2023-05-14T14:37:53.594Z,6.97
2023-05-14T14:40:20.200Z,8.82
2023-05-14T14:42:46.620Z,6.50
2023-05-14T14:45:13.259Z,8.65
2023-05-14T14:47:43.673Z,8.37
2023-05-14T14:50:10.206Z,9.77
2023-05-14T14:52:36.773Z,8.25
2023-05-14T14:55:03.318Z,7.70
2023-05-14T14:57:29.748Z,8.35
2023-05-14T14:59:56.268Z,8.77
2023-05-14T15:02:22.902Z,8.77
2023-05-14T15:04:49.367Z,6.75
2023-05-14T15:07:20.211Z,9.02
2023-05-14T15:09:46.568Z,9.00
2023-05-14T15:12:14.140Z,7.10
2023-05-14T15:14:40.559Z,13.45
2023-05-14T15:17:07.029Z,8.68
2023-05-14T15:19:33.463Z,7.43
2023-05-14T15:21:59.890Z,7.82
2023-05-14T15:24:26.299Z,8.53
2023-05-14T15:26:53.774Z,7.05
2023-05-14T15:29:20.463Z,6.78
2023-05-14T15:31:47.071Z,6.90
2023-05-14T15:34:13.539Z,8.00
2023-05-14T15:36:40.138Z,7.70
2023-05-14T15:39:06.653Z,6.75
2023-05-14T15:41:34.402Z,6.88
2023-05-14T15:44:00.803Z,7.68
2023-05-14T15:46:27.387Z,7.50
2023-05-14T15:48:53.891Z,7.43
2023-05-14T15:51:20.326Z,8.20
2023-05-14T15:53:46.793Z,8.38
2023-05-14T15:56:13.236Z,8.93
2023-05-14T15:58:39.660Z,7.78
2023-05-14T16:01:06.040Z,10.27
2023-05-14T16:03:32.540Z,8.13
2023-05-14T16:05:59.530Z,8.85
2023-05-14T16:08:25.893Z,9.18
2023-05-14T16:10:52.276Z,10.40
2023-05-14T16:13:19.414Z,7.27
2023-05-14T16:15:45.862Z,8.27
2023-05-14T16:18:12.312Z,6.95
2023-05-14T16:20:39.175Z,7.43
2023-05-14T16:23:05.578Z,7.72
2023-05-14T16:25:32.000Z,8.50
2023-05-14T16:27:58.417Z,8.25
2023-05-14T16:30:25.148Z,7.78
2023-05-14T16:32:51.847Z,7.32
2023-05-14T16:35:18.360Z,8.00
2023-05-14T16:37:44.881Z,6.67
2023-05-14T16:40:11.994Z,8.05
2023-05-14T16:42:38.715Z,8.68
2023-05-14T16:45:05.445Z,7.05
2023-05-14T16:47:31.880Z,8.93
2023-05-14T16:49:58.638Z,10.93
2023-05-14T16:52:25.080Z,11.88
2023-05-14T16:54:51.440Z,9.43
2023-05-14T16:57:17.917Z,10.68
2023-05-14T16:59:44.268Z,7.28
2023-05-14T17:02:10.618Z,7.90
2023-05-14T17:04:39.304Z,8.63
2023-05-14T17:07:06.019Z,8.38
2023-05-14T17:09:32.386Z,11.18
2023-05-14T17:11:58.838Z,9.10
2023-05-14T17:14:25.212Z,10.30
2023-05-14T17:16:51.658Z,8.77
2023-05-14T17:19:18.077Z,9.77
2023-05-14T17:21:44.449Z,9.48
2023-05-14T17:24:10.927Z,8.93
2023-05-14T17:26:40.090Z,9.80
2023-05-14T17:29:06.473Z,8.30
2023-05-14T17:31:32.940Z,12.10
2023-05-14T17:33:59.402Z,15.05
2023-05-14T17:36:25.857Z,18.30
2023-05-14T17:38:52.484Z,15.60
2023-05-14T17:41:18.916Z,16.27
2023-05-14T17:43:45.302Z,20.55
2023-05-14T17:46:11.786Z,19.30
2023-05-14T17:48:38.233Z,21.50
2023-05-14T17:51:04.701Z,19.43
2023-05-14T17:53:31.150Z,19.35
2023-05-14T17:55:57.629Z,20.80
2023-05-14T17:58:24.956Z,21.98
2023-05-14T18:00:51.467Z,20.90
2023-05-14T18:03:20.224Z,22.97
2023-05-14T18:05:46.738Z,22.60
2023-05-14T18:08:14.454Z,23.10
2023-05-14T18:10:40.875Z,23.85
2023-05-14T18:13:07.253Z,20.90
2023-05-14T18:15:33.643Z,21.90
2023-05-14T18:18:00.106Z,22.83
2023-05-14T18:20:26.562Z,23.13
2023-05-14T18:22:52.935Z,22.42
2023-05-14T18:25:19.419Z,24.58
2023-05-14T18:27:45.916Z,23.10
2023-05-14T18:30:14.815Z,25.23
2023-05-14T18:32:43.581Z,23.42
2023-05-14T18:35:11.001Z,24.15
2023-05-14T18:37:38.400Z,21.58
2023-05-14T18:40:06.901Z,22.13
2023-05-14T18:42:34.557Z,24.45
2023-05-14T18:45:01.465Z,24.73
2023-05-14T18:47:28.114Z,23.73
2023-05-14T18:49:55.802Z,27.77
2023-05-14T18:52:22.819Z,26.07
2023-05-14T18:54:50.641Z,25.05
2023-05-14T18:57:17.222Z,26.00
2023-05-14T18:59:43.608Z,25.58
2023-05-14T19:02:10.156Z,28.15
2023-05-14T19:04:50.656Z,30.07
2023-05-14T19:07:18.656Z,25.25
2023-05-14T19:09:45.681Z,29.10
2023-05-14T19:12:12.401Z,28.00
2023-05-14T19:14:38.827Z,27.35
2023-05-14T19:17:05.624Z,26.13
2023-05-14T19:19:32.511Z,28.90
2023-05-14T19:21:58.939Z,28.83
2023-05-14T19:24:25.413Z,28.50
2023-05-14T19:26:51.860Z,28.40
2023-05-14T19:29:18.287Z,29.43
2023-05-14T19:31:44.772Z,29.63
2023-05-14T19:34:11.182Z,29.50
2023-05-14T19:36:37.657Z,31.85
2023-05-14T19:39:04.414Z,29.65
2023-05-14T19:41:30.991Z,32.03
2023-05-14T19:43:57.540Z,31.65
2023-05-14T19:46:24.143Z,30.67
2023-05-14T19:48:50.659Z,28.75
2023-05-14T19:51:17.037Z,34.35
2023-05-14T19:53:43.544Z,33.20
2023-05-14T19:56:09.957Z,30.88
2023-05-14T19:58:36.402Z,34.67
2023-05-14T20:01:03.071Z,32.95
2023-05-14T20:03:29.804Z,34.28
2023-05-14T20:05:56.507Z,33.73
2023-05-14T20:08:22.899Z,36.22
2023-05-14T20:10:49.437Z,36.75
2023-05-14T20:13:16.181Z,32.80
2023-05-14T20:15:45.522Z,35.50
2023-05-14T20:18:12.326Z,35.07
2023-05-14T20:20:39.983Z,35.75
2023-05-14T20:23:06.497Z,33.72
2023-05-14T20:25:33.264Z,33.63
2023-05-14T20:28:02.510Z,34.38
2023-05-14T20:30:28.920Z,34.37
2023-05-14T20:32:55.474Z,36.22
2023-05-14T20:35:21.954Z,36.42
2023-05-14T20:37:49.776Z,35.78
2023-05-14T20:40:16.404Z,37.13
2023-05-14T20:42:42.877Z,38.20
2023-05-14T20:45:10.335Z,39.13
2023-05-14T20:47:36.885Z,37.53
2023-05-14T20:50:04.537Z,39.15
2023-05-14T20:52:30.963Z,39.30
2023-05-14T20:54:59.346Z,35.13
2023-05-14T20:57:27.834Z,41.40
2023-05-14T20:59:54.237Z,38.47
2023-05-14T21:02:20.892Z,37.40
2023-05-14T21:04:47.551Z,37.42
2023-05-14T21:07:13.987Z,40.00
2023-05-14T21:09:40.445Z,39.47
2023-05-14T21:12:07.243Z,39.47
2023-05-14T21:14:33.699Z,40.95
2023-05-14T21:17:00.115Z,38.95
2023-05-14T21:19:26.591Z,43.80
2023-05-14T21:21:52.966Z,42.10
2023-05-14T21:24:19.437Z,44.70
2023-05-14T21:26:46.259Z,40.55
2023-05-14T21:29:12.665Z,42.55
2023-05-14T21:31:39.203Z,40.90
2023-05-14T21:34:05.761Z,40.85
2023-05-14T21:36:32.263Z,43.67
2023-05-14T21:38:58.657Z,43.13
2023-05-14T21:41:25.110Z,43.65
2023-05-14T21:43:51.504Z,46.40
2023-05-14T21:46:17.999Z,45.05
2023-05-14T21:48:44.570Z,44.38
2023-05-14T21:51:11.330Z,43.50
2023-05-14T21:53:37.704Z,41.63
2023-05-14T21:56:04.376Z,45.13
2023-05-14T21:58:30.786Z,45.55
2023-05-14T22:00:57.776Z,45.28
2023-05-14T22:03:24.375Z,48.60
2023-05-14T22:05:50.812Z,46.90
2023-05-14T22:08:17.597Z,50.07
2023-05-14T22:10:44.389Z,51.05
2023-05-14T22:13:11.002Z,48.80
2023-05-14T22:15:37.872Z,52.08
2023-05-14T22:18:04.618Z,56.47
2023-05-14T22:20:31.124Z,56.37
2023-05-14T22:22:57.566Z,53.55
2023-05-14T22:25:24.192Z,58.00
2023-05-14T22:27:50.804Z,58.55
2023-05-14T22:30:17.262Z,57.30
2023-05-14T22:32:43.843Z,54.73
2023-05-14T22:35:11.157Z,58.78
2023-05-14T22:37:37.638Z,57.65
2023-05-14T22:40:05.221Z,62.55
2023-05-14T22:42:31.616Z,63.92
2023-05-14T22:44:57.994Z,55.87
2023-05-14T22:47:25.803Z,63.08
2023-05-14T22:49:52.454Z,64.78
2023-05-14T22:52:18.946Z,68.38
2023-05-14T22:54:46.592Z,67.20
2023-05-14T22:57:13.090Z,75.00
2023-05-14T22:59:39.543Z,70.53
2023-05-14T23:02:06.833Z,65.60
2023-05-14T23:04:33.390Z,70.38
2023-05-14T23:06:59.869Z,75.53
2023-05-14T23:09:26.324Z,68.63
2023-05-14T23:11:52.728Z,70.78
2023-05-14T23:14:19.640Z,72.05
2023-05-14T23:16:46.095Z,72.32
2023-05-14T23:19:12.670Z,69.97
2023-05-14T23:21:39.215Z,71.63
2023-05-14T23:24:06.201Z,65.47
2023-05-14T23:26:32.771Z,66.57
2023-05-14T23:28:59.244Z,73.22
2023-05-14T23:31:25.817Z,67.32
2023-05-14T23:33:52.210Z,70.13
2023-05-14T23:36:18.682Z,69.97
2023-05-14T23:38:45.330Z,73.63
2023-05-14T23:41:11.707Z,74.10
2023-05-14T23:43:38.082Z,73.85
2023-05-14T23:46:04.593Z,72.03
2023-05-14T23:48:31.308Z,70.00
2023-05-14T23:50:57.700Z,72.78
2023-05-14T23:53:24.152Z,68.20
2023-05-14T23:55:50.666Z,67.13
2023-05-14T23:58:17.162Z,68.63
